createdAt,value
2016-11-04T00:00:02.709Z,1009.43
2016-11-04T00:00:43.385Z,1009.43
2016-11-04T00:01:24.099Z,1009.4
2016-11-04T00:02:04.774Z,1009.42
2016-11-04T00:02:45.439Z,1009.4
2016-11-04T00:03:26.123Z,1009.41
2016-11-04T00:04:06.750Z,1009.37
2016-11-04T00:04:47.474Z,1009.39
2016-11-04T00:05:28.167Z,1009.39
2016-11-04T00:06:08.851Z,1009.36
2016-11-04T00:06:49.533Z,1009.41
2016-11-04T00:07:30.188Z,1009.36
2016-11-04T00:08:10.867Z,1009.35
2016-11-04T00:08:51.539Z,1009.35
2016-11-04T00:09:32.240Z,1009.33
2016-11-04T00:10:12.940Z,1009.31
2016-11-04T00:10:53.592Z,1009.3
2016-11-04T00:11:34.259Z,1009.32
2016-11-04T00:12:14.922Z,1009.29
2016-11-04T00:12:55.589Z,1009.29
2016-11-04T00:13:36.252Z,1009.28
2016-11-04T00:14:16.902Z,1009.29
2016-11-04T00:14:57.631Z,1009.28
2016-11-04T00:15:38.364Z,1009.29
2016-11-04T00:16:19.033Z,1009.31
2016-11-04T00:16:59.771Z,1009.31
2016-11-04T00:17:40.372Z,1009.34
2016-11-04T00:18:21.097Z,1009.32
2016-11-04T00:19:01.833Z,1009.31
2016-11-04T00:19:42.525Z,1009.34
2016-11-04T00:20:23.191Z,1009.33
2016-11-04T00:21:03.882Z,1009.36
2016-11-04T00:21:44.572Z,1009.29
2016-11-04T00:22:25.263Z,1009.29
2016-11-04T00:23:05.928Z,1009.31
2016-11-04T00:23:46.646Z,1009.24
2016-11-04T00:24:27.345Z,1009.25
2016-11-04T00:25:08.036Z,1009.22
2016-11-04T00:25:48.712Z,1009.24
2016-11-04T00:26:29.418Z,1009.21
2016-11-04T00:27:10.052Z,1009.2
2016-11-04T00:27:50.712Z,1009.2
2016-11-04T00:28:31.433Z,1009.2
2016-11-04T00:29:12.154Z,1009.17
2016-11-04T00:29:52.829Z,1009.15
2016-11-04T00:30:33.554Z,1009.19
2016-11-04T00:31:14.249Z,1009.18
2016-11-04T00:31:54.928Z,1009.15
2016-11-04T00:32:35.630Z,1009.17
2016-11-04T00:33:16.338Z,1009.1
2016-11-04T00:33:57.044Z,1009.13
2016-11-04T00:34:37.721Z,1009.13
2016-11-04T00:35:18.395Z,1009.12
2016-11-04T00:35:59.059Z,1009.15
2016-11-04T00:36:39.702Z,1009.17
2016-11-04T00:37:20.405Z,1009.19
2016-11-04T00:38:01.096Z,1009.16
2016-11-04T00:38:41.816Z,1009.16
2016-11-04T00:39:22.481Z,1009.14
2016-11-04T00:40:03.177Z,1009.17
2016-11-04T00:40:43.877Z,1009.18
2016-11-04T00:41:24.599Z,1009.17
2016-11-04T00:42:05.238Z,1009.15
2016-11-04T00:42:45.944Z,1009.18
2016-11-04T00:43:26.630Z,1009.17
2016-11-04T00:44:07.293Z,1009.17
2016-11-04T00:44:47.965Z,1009.17
2016-11-04T00:45:28.612Z,1009.16
2016-11-04T00:46:09.316Z,1009.13
2016-11-04T00:46:49.998Z,1009.08
2016-11-04T00:47:30.660Z,1009.11
2016-11-04T00:48:11.337Z,1009.07
2016-11-04T00:48:52.039Z,1009.09
2016-11-04T00:49:32.759Z,1009.09
2016-11-04T00:50:13.445Z,1009.03
2016-11-04T00:50:54.123Z,1009.06
2016-11-04T00:51:34.863Z,1009.06
2016-11-04T00:52:15.567Z,1009.06
2016-11-04T00:52:56.250Z,1009.05
2016-11-04T00:53:36.960Z,1009.03
2016-11-04T00:54:17.597Z,1009.05
2016-11-04T00:54:58.242Z,1009.08
2016-11-04T00:55:38.878Z,1009.05
2016-11-04T00:56:19.523Z,1009.04
2016-11-04T00:57:00.146Z,1009.02
2016-11-04T00:57:40.809Z,1009.02
2016-11-04T00:58:21.464Z,1008.98
2016-11-04T00:59:02.106Z,1008.97
2016-11-04T00:59:42.733Z,1008.99
2016-11-04T01:00:23.411Z,1009
2016-11-04T01:01:04.057Z,1009
2016-11-04T01:01:44.682Z,1009.02
2016-11-04T01:02:25.326Z,1009.05
2016-11-04T01:03:05.986Z,1009.05
2016-11-04T01:03:46.630Z,1009.09
2016-11-04T01:04:27.276Z,1009.07
2016-11-04T01:05:07.906Z,1009.08
2016-11-04T01:05:48.564Z,1009.07
2016-11-04T01:06:29.207Z,1009.07
2016-11-04T01:07:09.850Z,1009.03
2016-11-04T01:07:50.525Z,1009.03
2016-11-04T01:08:31.162Z,1009.03
2016-11-04T01:09:11.827Z,1009
2016-11-04T01:09:52.464Z,1009
2016-11-04T01:10:33.126Z,1008.96
2016-11-04T01:11:13.781Z,1008.96
2016-11-04T01:11:54.430Z,1008.93
2016-11-04T01:12:35.094Z,1008.9
2016-11-04T01:13:15.743Z,1008.88
2016-11-04T01:13:56.392Z,1008.86
2016-11-04T01:14:37.029Z,1008.83
2016-11-04T01:15:17.659Z,1008.86
2016-11-04T01:15:58.342Z,1008.84
2016-11-04T01:16:38.985Z,1008.83
2016-11-04T01:17:19.594Z,1008.83
2016-11-04T01:18:00.248Z,1008.87
2016-11-04T01:18:40.894Z,1008.88
2016-11-04T01:19:21.552Z,1008.87
2016-11-04T01:20:02.200Z,1008.87
2016-11-04T01:20:42.876Z,1008.91
2016-11-04T01:21:23.505Z,1008.91
2016-11-04T01:22:04.108Z,1008.9
2016-11-04T01:22:44.769Z,1008.87
2016-11-04T01:23:25.401Z,1008.87
2016-11-04T01:24:06.091Z,1008.84
2016-11-04T01:24:46.736Z,1008.87
2016-11-04T01:25:27.433Z,1008.87
2016-11-04T01:26:08.107Z,1008.86
2016-11-04T01:26:48.749Z,1008.83
2016-11-04T01:27:29.403Z,1008.86
2016-11-04T01:28:10.044Z,1008.88
2016-11-04T01:28:50.705Z,1008.87
2016-11-04T01:29:31.351Z,1008.88
2016-11-04T01:30:12.020Z,1008.91
2016-11-04T01:30:52.664Z,1008.91
2016-11-04T01:31:33.318Z,1008.88
2016-11-04T01:32:13.996Z,1008.94
2016-11-04T01:32:54.633Z,1008.95
2016-11-04T01:33:35.380Z,1008.96
2016-11-04T01:34:16.070Z,1008.95
2016-11-04T01:34:56.736Z,1008.98
2016-11-04T01:35:37.446Z,1008.99
2016-11-04T01:36:18.080Z,1008.96
2016-11-04T01:36:58.750Z,1008.98
2016-11-04T01:37:39.411Z,1009.01
2016-11-04T01:38:20.111Z,1009
2016-11-04T01:39:00.782Z,1009.01
2016-11-04T01:39:41.438Z,1009
2016-11-04T01:40:22.164Z,1009.04
2016-11-04T01:41:02.883Z,1009.02
2016-11-04T01:41:43.560Z,1009.07
2016-11-04T01:42:24.289Z,1009.04
2016-11-04T01:43:04.980Z,1009.07
2016-11-04T01:43:45.654Z,1009.06
2016-11-04T01:44:26.364Z,1009.05
2016-11-04T01:45:07.065Z,1009.09
2016-11-04T01:45:47.772Z,1009.11
2016-11-04T01:46:28.463Z,1009.14
2016-11-04T01:47:09.208Z,1009.1
2016-11-04T01:47:49.890Z,1009.15
2016-11-04T01:48:30.585Z,1009.15
2016-11-04T01:49:11.259Z,1009.15
2016-11-04T01:49:51.974Z,1009.13
2016-11-04T01:50:32.665Z,1009.11
2016-11-04T01:51:13.334Z,1009.08
2016-11-04T01:51:54.017Z,1009.05
2016-11-04T01:52:34.737Z,1009.06
2016-11-04T01:53:15.384Z,1009.05
2016-11-04T01:53:56.048Z,1009.06
2016-11-04T01:54:36.756Z,1009.06
2016-11-04T01:55:17.440Z,1009.05
2016-11-04T01:55:58.094Z,1009.03
2016-11-04T01:56:38.762Z,1009.01
2016-11-04T01:57:19.443Z,1009.03
2016-11-04T01:58:00.182Z,1009.02
2016-11-04T01:58:40.863Z,1008.97
2016-11-04T01:59:21.551Z,1009.01
2016-11-04T02:00:02.219Z,1009.02
2016-11-04T02:00:42.891Z,1009.04
2016-11-04T02:01:23.596Z,1009.04
2016-11-04T02:02:04.248Z,1009.01
2016-11-04T02:02:44.953Z,1009.02
2016-11-04T02:03:25.661Z,1009.02
2016-11-04T02:04:06.362Z,1009.01
2016-11-04T02:04:47.112Z,1009.04
2016-11-04T02:05:27.798Z,1009.01
2016-11-04T02:06:08.495Z,1009
2016-11-04T02:06:49.173Z,1009.05
2016-11-04T02:07:29.904Z,1009.03
2016-11-04T02:08:10.585Z,1009.07
2016-11-04T02:08:51.367Z,1009.04
2016-11-04T02:09:32.052Z,1009.04
2016-11-04T02:10:12.727Z,1009.03
2016-11-04T02:10:53.430Z,1009.04
2016-11-04T02:11:34.097Z,1008.99
2016-11-04T02:12:14.810Z,1009.05
2016-11-04T02:12:55.509Z,1009.06
2016-11-04T02:13:36.192Z,1009.04
2016-11-04T02:14:16.872Z,1009.04
2016-11-04T02:14:57.571Z,1009
2016-11-04T02:15:38.259Z,1009.02
2016-11-04T02:16:18.960Z,1009.02
2016-11-04T02:16:59.613Z,1009.04
2016-11-04T02:17:40.311Z,1009
2016-11-04T02:18:20.997Z,1008.99
2016-11-04T02:19:01.681Z,1009.01
2016-11-04T02:19:42.385Z,1009
2016-11-04T02:20:23.132Z,1008.95
2016-11-04T02:21:03.825Z,1008.95
2016-11-04T02:21:44.529Z,1008.95
2016-11-04T02:22:25.218Z,1008.98
2016-11-04T02:23:05.853Z,1009.02
2016-11-04T02:23:46.539Z,1009
2016-11-04T02:24:27.239Z,1008.97
2016-11-04T02:25:07.903Z,1009.01
2016-11-04T02:25:48.589Z,1009.02
2016-11-04T02:26:29.254Z,1009.08
2016-11-04T02:27:09.940Z,1009.06
2016-11-04T02:27:50.615Z,1009.05
2016-11-04T02:28:31.293Z,1009.05
2016-11-04T02:29:12.008Z,1009.07
2016-11-04T02:29:52.689Z,1009.06
2016-11-04T02:30:33.390Z,1009.06
2016-11-04T02:31:14.052Z,1009.05
2016-11-04T02:31:54.752Z,1009.04
2016-11-04T02:32:35.448Z,1009.03
2016-11-04T02:33:16.107Z,1009.03
2016-11-04T02:33:56.795Z,1009.05
2016-11-04T02:34:37.498Z,1009.03
2016-11-04T02:35:18.144Z,1009.03
2016-11-04T02:35:58.841Z,1009
2016-11-04T02:36:39.543Z,1009.04
2016-11-04T02:37:20.221Z,1009.01
2016-11-04T02:38:00.912Z,1009.01
2016-11-04T02:38:41.630Z,1008.98
2016-11-04T02:39:22.338Z,1009.02
2016-11-04T02:40:02.987Z,1008.97
2016-11-04T02:40:43.603Z,1008.95
2016-11-04T02:41:24.304Z,1008.91
2016-11-04T02:42:04.984Z,1008.9
2016-11-04T02:42:45.705Z,1008.91
2016-11-04T02:43:26.346Z,1008.91
2016-11-04T02:44:07.052Z,1008.9
2016-11-04T02:44:47.677Z,1008.9
2016-11-04T02:45:28.397Z,1008.88
2016-11-04T02:46:09.066Z,1008.89
2016-11-04T02:46:49.780Z,1008.89
2016-11-04T02:47:30.439Z,1008.87
2016-11-04T02:48:11.142Z,1008.87
2016-11-04T02:48:51.831Z,1008.87
2016-11-04T02:49:32.521Z,1008.88
2016-11-04T02:50:13.230Z,1008.83
2016-11-04T02:50:53.920Z,1008.84
2016-11-04T02:51:34.601Z,1008.87
2016-11-04T02:52:15.295Z,1008.86
2016-11-04T02:52:56.006Z,1008.85
2016-11-04T02:53:36.687Z,1008.83
2016-11-04T02:54:17.364Z,1008.9
2016-11-04T02:54:58.032Z,1008.89
2016-11-04T02:55:38.700Z,1008.92
2016-11-04T02:56:19.382Z,1008.88
2016-11-04T02:57:00.078Z,1008.9
2016-11-04T02:57:40.749Z,1008.86
2016-11-04T02:58:21.434Z,1008.82
2016-11-04T02:59:02.125Z,1008.79
2016-11-04T02:59:42.796Z,1008.81
2016-11-04T03:00:23.497Z,1008.8
2016-11-04T03:01:04.221Z,1008.79
2016-11-04T03:01:44.902Z,1008.81
2016-11-04T03:02:25.563Z,1008.8
2016-11-04T03:03:06.263Z,1008.82
2016-11-04T03:03:46.912Z,1008.79
2016-11-04T03:04:27.619Z,1008.79
2016-11-04T03:05:08.301Z,1008.78
2016-11-04T03:05:49.048Z,1008.8
2016-11-04T03:06:29.744Z,1008.79
2016-11-04T03:07:10.384Z,1008.81
2016-11-04T03:07:51.107Z,1008.81
2016-11-04T03:08:31.753Z,1008.81
2016-11-04T03:09:12.427Z,1008.83
2016-11-04T03:09:53.148Z,1008.82
2016-11-04T03:10:33.818Z,1008.85
2016-11-04T03:11:14.559Z,1008.81
2016-11-04T03:11:55.232Z,1008.83
2016-11-04T03:12:35.937Z,1008.82
2016-11-04T03:13:16.601Z,1008.84
2016-11-04T03:13:57.272Z,1008.81
2016-11-04T03:14:37.907Z,1008.78
2016-11-04T03:15:18.595Z,1008.81
2016-11-04T03:15:59.295Z,1008.8
2016-11-04T03:16:39.958Z,1008.77
2016-11-04T03:17:20.601Z,1008.79
2016-11-04T03:18:01.313Z,1008.74
2016-11-04T03:18:42.014Z,1008.74
2016-11-04T03:19:22.706Z,1008.73
2016-11-04T03:20:03.412Z,1008.72
2016-11-04T03:20:44.109Z,1008.69
2016-11-04T03:21:24.805Z,1008.7
2016-11-04T03:22:05.495Z,1008.64
2016-11-04T03:22:46.182Z,1008.65
2016-11-04T03:23:26.873Z,1008.63
2016-11-04T03:24:07.596Z,1008.62
2016-11-04T03:24:48.324Z,1008.64
2016-11-04T03:25:29.047Z,1008.6
2016-11-04T03:26:09.719Z,1008.6
2016-11-04T03:26:50.372Z,1008.64
2016-11-04T03:27:31.043Z,1008.63
2016-11-04T03:28:11.737Z,1008.65
2016-11-04T03:28:52.415Z,1008.64
2016-11-04T03:29:33.112Z,1008.68
2016-11-04T03:30:13.823Z,1008.66
2016-11-04T03:30:54.551Z,1008.7
2016-11-04T03:31:35.251Z,1008.72
2016-11-04T03:32:15.922Z,1008.77
2016-11-04T03:32:56.592Z,1008.75
2016-11-04T03:33:37.251Z,1008.77
2016-11-04T03:34:17.955Z,1008.74
2016-11-04T03:34:59.224Z,1008.77
2016-11-04T03:35:39.942Z,1008.73
2016-11-04T03:36:20.613Z,1008.72
2016-11-04T03:37:01.272Z,1008.72
2016-11-04T03:37:41.964Z,1008.73
2016-11-04T03:38:22.696Z,1008.73
2016-11-04T03:39:03.378Z,1008.78
2016-11-04T03:39:44.074Z,1008.79
2016-11-04T03:40:24.752Z,1008.8
2016-11-04T03:41:05.419Z,1008.82
2016-11-04T03:41:46.141Z,1008.83
2016-11-04T03:42:26.872Z,1008.84
2016-11-04T03:43:07.578Z,1008.83
2016-11-04T03:43:48.274Z,1008.85
2016-11-04T03:44:28.944Z,1008.84
2016-11-04T03:45:09.607Z,1008.86
2016-11-04T03:45:50.267Z,1008.85
2016-11-04T03:46:30.929Z,1008.83
2016-11-04T03:47:11.613Z,1008.8
2016-11-04T03:47:52.281Z,1008.82
2016-11-04T03:48:32.986Z,1008.77
2016-11-04T03:49:13.637Z,1008.79
2016-11-04T03:49:54.354Z,1008.8
2016-11-04T03:50:35.021Z,1008.78
2016-11-04T03:51:15.751Z,1008.75
2016-11-04T03:51:56.406Z,1008.74
2016-11-04T03:52:37.068Z,1008.75
2016-11-04T03:53:17.725Z,1008.7
2016-11-04T03:53:58.415Z,1008.72
2016-11-04T03:54:39.051Z,1008.74
2016-11-04T03:55:19.739Z,1008.76
2016-11-04T03:56:00.402Z,1008.78
2016-11-04T03:56:41.059Z,1008.76
2016-11-04T03:57:21.763Z,1008.74
2016-11-04T03:58:02.384Z,1008.77
2016-11-04T03:58:43.018Z,1008.74
2016-11-04T03:59:23.704Z,1008.73
2016-11-04T04:00:04.392Z,1008.74
2016-11-04T04:00:45.127Z,1008.75
2016-11-04T04:01:25.774Z,1008.69
2016-11-04T04:02:06.422Z,1008.7
2016-11-04T04:02:47.120Z,1008.74
2016-11-04T04:03:27.807Z,1008.73
2016-11-04T04:04:08.518Z,1008.73
2016-11-04T04:04:49.221Z,1008.65
2016-11-04T04:05:29.869Z,1008.72
2016-11-04T04:06:10.566Z,1008.67
2016-11-04T04:06:51.306Z,1008.67
2016-11-04T04:07:32.038Z,1008.66
2016-11-04T04:08:12.724Z,1008.65
2016-11-04T04:08:53.393Z,1008.67
2016-11-04T04:09:34.102Z,1008.66
2016-11-04T04:10:14.766Z,1008.61
2016-11-04T04:10:55.435Z,1008.61
2016-11-04T04:11:36.099Z,1008.59
2016-11-04T04:12:16.780Z,1008.56
2016-11-04T04:12:57.451Z,1008.53
2016-11-04T04:13:38.083Z,1008.52
2016-11-04T04:14:18.760Z,1008.54
2016-11-04T04:14:59.501Z,1008.55
2016-11-04T04:15:40.135Z,1008.55
2016-11-04T04:16:20.821Z,1008.58
2016-11-04T04:17:01.514Z,1008.63
2016-11-04T04:17:42.156Z,1008.65
2016-11-04T04:18:22.869Z,1008.66
2016-11-04T04:19:03.545Z,1008.65
2016-11-04T04:19:44.237Z,1008.71
2016-11-04T04:20:24.913Z,1008.7
2016-11-04T04:21:05.585Z,1008.68
2016-11-04T04:21:46.311Z,1008.73
2016-11-04T04:22:27.012Z,1008.77
2016-11-04T04:23:07.658Z,1008.74
2016-11-04T04:23:48.291Z,1008.73
2016-11-04T04:24:29.044Z,1008.75
2016-11-04T04:25:09.714Z,1008.73
2016-11-04T04:25:50.404Z,1008.77
2016-11-04T04:26:31.110Z,1008.74
2016-11-04T04:27:11.791Z,1008.75
2016-11-04T04:27:52.464Z,1008.75
2016-11-04T04:28:33.166Z,1008.78
2016-11-04T04:29:13.868Z,1008.77
2016-11-04T04:29:54.543Z,1008.76
2016-11-04T04:30:35.258Z,1008.75
2016-11-04T04:31:15.919Z,1008.79
2016-11-04T04:31:56.594Z,1008.75
2016-11-04T04:32:37.268Z,1008.76
2016-11-04T04:33:17.957Z,1008.74
2016-11-04T04:33:58.651Z,1008.73
2016-11-04T04:34:39.355Z,1008.72
2016-11-04T04:35:20.076Z,1008.72
2016-11-04T04:36:00.769Z,1008.73
2016-11-04T04:36:41.450Z,1008.72
2016-11-04T04:37:22.189Z,1008.68
2016-11-04T04:38:02.902Z,1008.72
2016-11-04T04:38:43.609Z,1008.72
2016-11-04T04:39:24.308Z,1008.74
2016-11-04T04:40:05.041Z,1008.77
2016-11-04T04:40:45.748Z,1008.75
2016-11-04T04:41:26.488Z,1008.76
2016-11-04T04:42:07.191Z,1008.76
2016-11-04T04:42:47.891Z,1008.8
2016-11-04T04:43:28.630Z,1008.78
2016-11-04T04:44:09.311Z,1008.8
2016-11-04T04:44:50.008Z,1008.74
2016-11-04T04:45:30.665Z,1008.78
2016-11-04T04:46:11.351Z,1008.78
2016-11-04T04:46:52.053Z,1008.77
2016-11-04T04:47:32.722Z,1008.78
2016-11-04T04:48:13.457Z,1008.76
2016-11-04T04:48:54.128Z,1008.74
2016-11-04T04:49:34.816Z,1008.75
2016-11-04T04:50:15.481Z,1008.72
2016-11-04T04:50:56.151Z,1008.73
2016-11-04T04:51:36.818Z,1008.72
2016-11-04T04:52:17.507Z,1008.7
2016-11-04T04:52:58.173Z,1008.67
2016-11-04T04:53:38.838Z,1008.64
2016-11-04T04:54:19.536Z,1008.65
2016-11-04T04:55:00.227Z,1008.6
2016-11-04T04:55:40.883Z,1008.59
2016-11-04T04:56:21.573Z,1008.57
2016-11-04T04:57:02.271Z,1008.58
2016-11-04T04:57:42.951Z,1008.58
2016-11-04T04:58:23.665Z,1008.54
2016-11-04T04:59:04.354Z,1008.59
2016-11-04T04:59:45.048Z,1008.59
2016-11-04T05:00:25.688Z,1008.59
2016-11-04T05:01:06.393Z,1008.57
2016-11-04T05:01:47.075Z,1008.58
2016-11-04T05:02:27.770Z,1008.63
2016-11-04T05:03:08.473Z,1008.64
2016-11-04T05:03:49.167Z,1008.65
2016-11-04T05:04:29.877Z,1008.62
2016-11-04T05:05:10.561Z,1008.61
2016-11-04T05:05:51.242Z,1008.61
2016-11-04T05:06:31.968Z,1008.58
2016-11-04T05:07:12.639Z,1008.5
2016-11-04T05:07:53.456Z,1008.56
2016-11-04T05:08:34.118Z,1008.54
2016-11-04T05:09:14.787Z,1008.49
2016-11-04T05:09:55.509Z,1008.46
2016-11-04T05:10:36.200Z,1008.48
2016-11-04T05:11:16.885Z,1008.5
2016-11-04T05:11:57.584Z,1008.51
2016-11-04T05:12:38.279Z,1008.54
2016-11-04T05:13:18.999Z,1008.57
2016-11-04T05:13:59.665Z,1008.6
2016-11-04T05:14:40.353Z,1008.65
2016-11-04T05:15:21.018Z,1008.67
2016-11-04T05:16:01.685Z,1008.67
2016-11-04T05:16:42.351Z,1008.71
2016-11-04T05:17:23.039Z,1008.7
2016-11-04T05:18:03.767Z,1008.72
2016-11-04T05:18:44.443Z,1008.71
2016-11-04T05:19:25.105Z,1008.71
2016-11-04T05:20:05.798Z,1008.67
2016-11-04T05:20:46.446Z,1008.7
2016-11-04T05:21:27.181Z,1008.68
2016-11-04T05:22:07.851Z,1008.7
2016-11-04T05:22:48.511Z,1008.66
2016-11-04T05:23:29.205Z,1008.65
2016-11-04T05:24:09.927Z,1008.62
2016-11-04T05:24:50.601Z,1008.59
2016-11-04T05:25:31.309Z,1008.56
2016-11-04T05:26:11.986Z,1008.54
2016-11-04T05:26:52.737Z,1008.56
2016-11-04T05:27:33.458Z,1008.53
2016-11-04T05:28:14.139Z,1008.51
2016-11-04T05:28:54.821Z,1008.49
2016-11-04T05:29:35.537Z,1008.52
2016-11-04T05:30:16.222Z,1008.53
2016-11-04T05:30:56.931Z,1008.53
2016-11-04T05:31:37.595Z,1008.54
2016-11-04T05:32:18.251Z,1008.47
2016-11-04T05:32:58.935Z,1008.52
2016-11-04T05:33:39.585Z,1008.51
2016-11-04T05:34:20.263Z,1008.55
2016-11-04T05:35:00.965Z,1008.55
2016-11-04T05:35:41.601Z,1008.56
2016-11-04T05:36:22.293Z,1008.58
2016-11-04T05:37:02.986Z,1008.58
2016-11-04T05:37:43.639Z,1008.61
2016-11-04T05:38:25.046Z,1008.61
2016-11-04T05:39:04.969Z,1008.68
2016-11-04T05:39:45.633Z,1008.7
2016-11-04T05:40:26.319Z,1008.68
2016-11-04T05:41:06.990Z,1008.7
2016-11-04T05:41:47.679Z,1008.71
2016-11-04T05:42:28.373Z,1008.72
2016-11-04T05:43:09.052Z,1008.72
2016-11-04T05:43:49.731Z,1008.73
2016-11-04T05:44:30.437Z,1008.75
2016-11-04T05:45:11.139Z,1008.76
2016-11-04T05:45:51.804Z,1008.79
2016-11-04T05:46:32.500Z,1008.78
2016-11-04T05:47:13.171Z,1008.8
2016-11-04T05:47:53.847Z,1008.8
2016-11-04T05:48:34.518Z,1008.82
2016-11-04T05:49:15.180Z,1008.84
2016-11-04T05:49:55.851Z,1008.85
2016-11-04T05:50:36.487Z,1008.83
2016-11-04T05:51:17.188Z,1008.86
2016-11-04T05:51:57.846Z,1008.86
2016-11-04T05:52:38.513Z,1008.85
2016-11-04T05:53:19.194Z,1008.82
2016-11-04T05:53:59.879Z,1008.81
2016-11-04T05:54:40.580Z,1008.83
2016-11-04T05:55:21.252Z,1008.83
2016-11-04T05:56:01.907Z,1008.8
2016-11-04T05:56:42.581Z,1008.83
2016-11-04T05:57:23.322Z,1008.8
2016-11-04T05:58:04.052Z,1008.85
2016-11-04T05:58:44.735Z,1008.86
2016-11-04T05:59:25.416Z,1008.9
2016-11-04T06:00:06.112Z,1008.94
2016-11-04T06:00:46.814Z,1008.94
2016-11-04T06:01:27.528Z,1008.97
2016-11-04T06:02:08.200Z,1008.98
2016-11-04T06:02:48.916Z,1009
2016-11-04T06:03:29.609Z,1008.98
2016-11-04T06:04:10.255Z,1008.99
2016-11-04T06:04:50.955Z,1008.98
2016-11-04T06:05:31.618Z,1008.96
2016-11-04T06:06:12.319Z,1008.94
2016-11-04T06:06:53.002Z,1009
2016-11-04T06:07:33.631Z,1008.99
2016-11-04T06:08:14.337Z,1008.98
2016-11-04T06:08:55.023Z,1009.01
2016-11-04T06:09:35.648Z,1009.04
2016-11-04T06:10:17.313Z,1009.04
2016-11-04T06:10:57.989Z,1009.04
2016-11-04T06:11:38.688Z,1009.02
2016-11-04T06:12:19.393Z,1009.04
2016-11-04T06:13:00.078Z,1009.06
2016-11-04T06:13:40.747Z,1009.04
2016-11-04T06:14:21.429Z,1009.06
2016-11-04T06:15:02.154Z,1009.07
2016-11-04T06:15:42.914Z,1009.12
2016-11-04T06:16:23.731Z,1009.09
2016-11-04T06:17:04.499Z,1009.1
2016-11-04T06:17:45.165Z,1009.12
2016-11-04T06:18:25.854Z,1009.1
2016-11-04T06:19:06.578Z,1009.09
2016-11-04T06:19:47.273Z,1009.07
2016-11-04T06:20:27.912Z,1009.11
2016-11-04T06:21:08.594Z,1009.08
2016-11-04T06:21:49.278Z,1009.05
2016-11-04T06:22:29.946Z,1009.08
2016-11-04T06:23:10.614Z,1009.07
2016-11-04T06:23:51.335Z,1009.08
2016-11-04T06:24:31.966Z,1009.1
2016-11-04T06:25:12.627Z,1009.1
2016-11-04T06:25:53.319Z,1009.11
2016-11-04T06:26:33.950Z,1009.12
2016-11-04T06:27:14.643Z,1009.14
2016-11-04T06:27:55.348Z,1009.14
2016-11-04T06:28:36.037Z,1009.12
2016-11-04T06:29:16.740Z,1009.1
2016-11-04T06:29:57.385Z,1009.07
2016-11-04T06:30:38.078Z,1009.08
2016-11-04T06:31:18.770Z,1009.05
2016-11-04T06:31:59.445Z,1009.06
2016-11-04T06:32:40.087Z,1009.06
2016-11-04T06:33:20.751Z,1009.08
2016-11-04T06:34:01.425Z,1009.12
2016-11-04T06:34:42.088Z,1009.15
2016-11-04T06:35:22.737Z,1009.19
2016-11-04T06:36:03.402Z,1009.25
2016-11-04T06:36:44.034Z,1009.26
2016-11-04T06:37:24.753Z,1009.31
2016-11-04T06:38:05.488Z,1009.34
2016-11-04T06:38:46.193Z,1009.35
2016-11-04T06:39:26.886Z,1009.39
2016-11-04T06:40:07.610Z,1009.38
2016-11-04T06:40:48.326Z,1009.4
2016-11-04T06:41:29.028Z,1009.39
2016-11-04T06:42:09.687Z,1009.41
2016-11-04T06:42:50.355Z,1009.4
2016-11-04T06:43:31.020Z,1009.41
2016-11-04T06:44:11.704Z,1009.37
2016-11-04T06:44:52.396Z,1009.35
2016-11-04T06:45:33.030Z,1009.38
2016-11-04T06:46:13.719Z,1009.31
2016-11-04T06:46:54.401Z,1009.3
2016-11-04T06:47:35.102Z,1009.26
2016-11-04T06:48:15.800Z,1009.25
2016-11-04T06:48:56.529Z,1009.22
2016-11-04T06:49:37.224Z,1009.22
2016-11-04T06:50:17.924Z,1009.26
2016-11-04T06:50:58.632Z,1009.26
2016-11-04T06:51:39.322Z,1009.29
2016-11-04T06:52:19.965Z,1009.33
2016-11-04T06:53:00.673Z,1009.32
2016-11-04T06:53:41.340Z,1009.34
2016-11-04T06:54:22.036Z,1009.36
2016-11-04T06:55:02.714Z,1009.41
2016-11-04T06:55:43.398Z,1009.39
2016-11-04T06:56:24.065Z,1009.4
2016-11-04T06:57:04.733Z,1009.41
2016-11-04T06:57:45.449Z,1009.41
2016-11-04T06:58:26.094Z,1009.38
2016-11-04T06:59:06.780Z,1009.38
2016-11-04T06:59:47.501Z,1009.39
2016-11-04T07:00:28.147Z,1009.41
2016-11-04T07:01:08.806Z,1009.45
2016-11-04T07:01:49.480Z,1009.48
2016-11-04T07:02:30.138Z,1009.49
2016-11-04T07:03:10.836Z,1009.48
2016-11-04T07:03:51.565Z,1009.51
2016-11-04T07:04:32.190Z,1009.5
2016-11-04T07:05:12.897Z,1009.47
2016-11-04T07:05:53.607Z,1009.43
2016-11-04T07:06:34.341Z,1009.4
2016-11-04T07:07:15.019Z,1009.39
2016-11-04T07:07:55.710Z,1009.37
2016-11-04T07:08:36.414Z,1009.31
2016-11-04T07:09:17.035Z,1009.37
2016-11-04T07:09:57.748Z,1009.34
2016-11-04T07:10:38.427Z,1009.36
2016-11-04T07:11:19.109Z,1009.38
2016-11-04T07:11:59.858Z,1009.36
2016-11-04T07:12:40.549Z,1009.34
2016-11-04T07:13:21.237Z,1009.32
2016-11-04T07:14:01.933Z,1009.29
2016-11-04T07:14:42.610Z,1009.33
2016-11-04T07:15:23.323Z,1009.38
2016-11-04T07:16:04.012Z,1009.38
2016-11-04T07:16:44.750Z,1009.36
2016-11-04T07:17:25.412Z,1009.42
2016-11-04T07:18:06.121Z,1009.4
2016-11-04T07:18:46.800Z,1009.42
2016-11-04T07:19:27.504Z,1009.47
2016-11-04T07:20:08.181Z,1009.47
2016-11-04T07:20:48.842Z,1009.5
2016-11-04T07:21:29.507Z,1009.46
2016-11-04T07:22:10.147Z,1009.51
2016-11-04T07:22:50.832Z,1009.5
2016-11-04T07:23:31.504Z,1009.5
2016-11-04T07:24:12.159Z,1009.5
2016-11-04T07:24:52.849Z,1009.52
2016-11-04T07:25:33.521Z,1009.55
2016-11-04T07:26:14.211Z,1009.55
2016-11-04T07:26:54.884Z,1009.53
2016-11-04T07:27:35.543Z,1009.55
2016-11-04T07:28:16.217Z,1009.57
2016-11-04T07:28:56.858Z,1009.54
2016-11-04T07:29:37.509Z,1009.57
2016-11-04T07:30:18.228Z,1009.56
2016-11-04T07:30:58.957Z,1009.6
2016-11-04T07:31:39.619Z,1009.57
2016-11-04T07:32:20.331Z,1009.53
2016-11-04T07:33:01.043Z,1009.52
2016-11-04T07:33:42.000Z,1009.46
2016-11-04T07:34:22.686Z,1009.45
2016-11-04T07:35:03.339Z,1009.45
2016-11-04T07:35:44.031Z,1009.47
2016-11-04T07:36:24.714Z,1009.48
2016-11-04T07:37:05.394Z,1009.45
2016-11-04T07:37:46.058Z,1009.52
2016-11-04T07:38:26.714Z,1009.49
2016-11-04T07:39:07.414Z,1009.51
2016-11-04T07:39:48.085Z,1009.54
2016-11-04T07:40:28.809Z,1009.58
2016-11-04T07:41:09.477Z,1009.59
2016-11-04T07:41:50.164Z,1009.61
2016-11-04T07:42:30.830Z,1009.62
2016-11-04T07:43:11.542Z,1009.64
2016-11-04T07:43:52.212Z,1009.64
2016-11-04T07:44:32.934Z,1009.64
2016-11-04T07:45:13.592Z,1009.62
2016-11-04T07:45:54.293Z,1009.65
2016-11-04T07:46:35.002Z,1009.67
2016-11-04T07:47:15.651Z,1009.66
2016-11-04T07:47:56.327Z,1009.67
2016-11-04T07:48:37.072Z,1009.69
2016-11-04T07:49:17.765Z,1009.69
2016-11-04T07:49:58.447Z,1009.67
2016-11-04T07:50:39.193Z,1009.66
2016-11-04T07:51:19.863Z,1009.67
2016-11-04T07:52:00.628Z,1009.66
2016-11-04T07:52:41.356Z,1009.66
2016-11-04T07:53:22.010Z,1009.66
2016-11-04T07:54:02.718Z,1009.64
2016-11-04T07:54:43.384Z,1009.59
2016-11-04T07:55:24.127Z,1009.61
2016-11-04T07:56:04.779Z,1009.61
2016-11-04T07:56:45.484Z,1009.58
2016-11-04T07:57:26.187Z,1009.61
2016-11-04T07:58:06.914Z,1009.59
2016-11-04T07:58:47.607Z,1009.62
2016-11-04T07:59:28.320Z,1009.64
2016-11-04T08:00:08.985Z,1009.66
2016-11-04T08:00:49.680Z,1009.67
2016-11-04T08:01:30.349Z,1009.65
2016-11-04T08:02:11.037Z,1009.62
2016-11-04T08:02:51.730Z,1009.62
2016-11-04T08:03:32.396Z,1009.62
2016-11-04T08:04:13.063Z,1009.63
2016-11-04T08:04:53.804Z,1009.65
2016-11-04T08:05:34.485Z,1009.61
2016-11-04T08:06:15.154Z,1009.65
2016-11-04T08:06:55.876Z,1009.61
2016-11-04T08:07:36.630Z,1009.64
2016-11-04T08:08:17.279Z,1009.65
2016-11-04T08:08:58.041Z,1009.61
2016-11-04T08:09:38.753Z,1009.63
2016-11-04T08:10:19.493Z,1009.6
2016-11-04T08:11:00.260Z,1009.58
2016-11-04T08:11:40.969Z,1009.6
2016-11-04T08:12:21.646Z,1009.56
2016-11-04T08:13:02.394Z,1009.55
2016-11-04T08:13:43.094Z,1009.57
2016-11-04T08:14:23.821Z,1009.55